ADDS METAR Data INFO
IDs: Format: Raw Decoded Include TAF

Data at: 0317 UTC 20 Jul 2018

KOWA 200259Z AUTO 10006KT 10SM OVC006 19/18 A2966 RMK AO2
KOWA 200053Z AUTO 10007KT 10SM OVC008 19/18 A2966 RMK AO2
KOWA 200035Z AUTO 11008KT 10SM OVC008 19/18 A2966 RMK AO2
KOWA 200015Z AUTO 12005KT 10SM BKN008 OVC014 19/18 A2967 RMK AO2
KOWA 200001Z AUTO 11008KT 10SM BKN008 OVC014 19/18 A2967 RMK AO2
KOWA 192333Z AUTO 12005G08KT 10SM OVC008 20/18 A2968 RMK AO2
KOWA 192319Z AUTO 11007KT 10SM OVC008 19/18 A2968 RMK AO2
KOWA 192250Z AUTO 12009KT 10SM OVC010 19/18 A2969 RMK AO2 LTG DSNT SE
KOWA 192203Z AUTO 13008KT 10SM OVC012 20/18 A2971 RMK AO2
KOWA 192130Z AUTO 14010G20KT 10SM BKN012 OVC020 20/18 A2972 RMK AO2 LTG DSNT E
KOWA 192114Z AUTO 12010G17KT 10SM SCT009 SCT014 BKN020 20/19 A2971 RMK AO2
KOWA 192050Z AUTO 11010G17KT 7SM -RA BKN013 BKN021 21/19 A2971 RMK AO2 LTG DSNT SE
KOWA 192042Z AUTO 12013G17KT 7SM RA BKN013 OVC021 19/18 A2971 RMK AO2 P000
KOWA 192010Z AUTO 12010KT 10SM OVC013 19/18 A2974 RMK AO2 LTG DSNT S THRU NW
KOWA 191956Z AUTO 13009KT 10SM OVC013 19/18 A2974 RMK AO2 LTG DSNT S
KOWA 191937Z AUTO 14010G18KT 7SM OVC013 20/17 A2975 RMK AO2 LTG DSNT SE
KOWA 191813Z AUTO 13013G22KT 10SM SCT011 SCT025 20/19 A2976 RMK AO2
KOWA 191755Z AUTO 13016G22KT 10SM SCT047 20/19 A2977 RMK AO2 P0001
KOWA 191738Z AUTO 13013G18KT 10SM BKN049 19/18 A2979 RMK AO2 P0001
KOWA 191715Z AUTO 13010KT 10SM -RA SCT009 BKN060 19/18 A2980 RMK AO2 LTG D P0001
KOWA 191658Z AUTO 15010G15KT 5SM +RA BKN009 OVC015 19/18 A2982 RMK AO2 P0001
KOWA 191633Z AUTO 17009G15KT 5SM +RA SCT003 BKN014 OVC036 19/18 A2983 RMK P0001
KOWA 191611Z AUTO 14016G22KT 2 1/2SM +RA BKN012 OVC017 20/18 A2982 RMK AO2 VIS 1V5 LTG DSNT SW P0001
KOWA 191551Z AUTO 14013G16KT 10SM BKN012 20/18 A2980 RMK AO2 LTG DSNT SW
KOWA 191410Z AUTO 15009G16KT 10SM RA SCT012 OVC020 19/18 A2986 RMK AO2 LTG DSNT S AND SW
KOWA 191350Z AUTO 15011G18KT 10SM RA SCT012 BKN020 19/18 A2985 RMK AO2 LTG DSNT S AND NW
KOWA 191333Z AUTO 14012G17KT 10SM RA BKN011 BKN022 20/18 A2986 RMK AO2 LTG
KOWA 191316Z AUTO 14010G18KT 10SM -VCTSRA BKN013 20/19 A2986 RMK AO2 LTG D
KOWA 191257Z AUTO 14012G17KT 10SM RA SCT009 SCT013 SCT025 20/18 A2986 RMK
KOWA 191234Z AUTO 15012G17KT 10SM RA SCT020 SCT025 BKN070 20/19 A2985 RMK
KOWA 191139Z AUTO 14008KT 10SM SCT050 BKN080 21/18 A2987 RMK AO2 LTG DSNT
KOWA 191115Z AUTO 14012G15KT 10SM BKN050 21/18 A2988 RMK AO2 LTG DSNT S TH
KOWA 191010Z AUTO 15008KT 10SM SCT055 SCT090 21/18 A2989 RMK AO2 LTG DSNT S AND SW
KOWA 190953Z AUTO 15011KT 10SM SCT055 SCT080 21/18 A2990 RMK AO2 LTG DSNT
KOWA 190935Z AUTO 15009KT 10SM SCT055 21/18 A2990 RMK AO2 LTG DSNT SW AND
KOWA 190914Z AUTO 15007KT 10SM SCT055 21/18 A2990 RMK AO2
KOWA 190856Z AUTO 15009KT 10SM CLR 21/18 A2990 RMK AO2
KOWA 190830Z AUTO 14007KT 10SM CLR 21/18 A2991 RMK AO2 LTG DSNT S
KOWA 190810Z AUTO 14006KT 10SM CLR 20/18 A2993 RMK AO2
KOWA 190757Z AUTO 16005KT 10SM CLR 19/17 A2993 RMK AO2
KOWA 190731Z AUTO 13006KT 10SM CLR 19/17 A2994 RMK AO2 LTG DSNT W
KOWA 190710Z AUTO 13006KT 10SM CLR 19/17 A2994 RMK AO2
KOWA 190651Z AUTO 14006KT 10SM CLR 19/17 A2994 RMK AO2
KOWA 190638Z AUTO 14006KT 10SM CLR 19/16 A2994 RMK AO2
KOWA 190619Z AUTO 15006KT 10SM CLR 19/16 A2995 RMK AO2
KOWA 190550Z AUTO 12005KT 10SM CLR 19/16 A2996 RMK AO2
KOWA 190515Z AUTO 13005KT 10SM CLR 19/17 A2997 RMK AO2
KOWA 190459Z AUTO 13006KT 10SM CLR 20/17 A2997 RMK AO2
KOWA 190434Z AUTO 13006KT 10SM CLR 20/17 A2997 RMK AO2
KOWA 190418Z AUTO 13006KT 10SM CLR 20/17 A2997 RMK AO2
KOWA 190351Z AUTO 13006KT 10SM CLR 21/17 A2998 RMK AO2
KOWA 190333Z AUTO 13005KT 10SM CLR 21/17 A2998 RMK AO2
KOWA 190313Z AUTO 13004KT 10SM CLR 21/17 A2999 RMK AO2
KOWA 190256Z AUTO 13004KT 10SM CLR 21/17 A2999 RMK AO2
KOWA 190230Z AUTO 10004KT 10SM CLR 21/17 A2998 RMK AO2
KOWA 190211Z AUTO 10005KT 10SM CLR 22/17 A2998 RMK AO2
KOWA 190155Z AUTO 12004KT 10SM CLR 22/17 A2998 RMK AO2 LTG DSNT SW
KOWA 190135Z AUTO 11005KT 10SM CLR 23/17 A2998 RMK AO2
KOWA 190113Z AUTO 12005KT 10SM CLR 24/17 A2998 RMK AO2
KOWA 190054Z AUTO 12006KT 10SM CLR 24/17 A2999 RMK AO2
KOWA 190030Z AUTO 12005KT 10SM CLR 24/18 A2999 RMK AO2
KOWA 182352Z AUTO 14005KT 10SM CLR 26/18 A3000 RMK AO2
KOWA 182335Z AUTO 12007KT 10SM CLR 26/18 A3000 RMK AO2
KOWA 182318Z AUTO 11005KT 10SM CLR 26/18 A3001 RMK AO2
KOWA 182250Z AUTO 12003KT 10SM BKN044 26/18 A3001 RMK AO2
KOWA 182231Z AUTO 12005KT 10SM OVC044 26/18 A3001 RMK AO2
KOWA 182215Z AUTO 10005KT 10SM BKN044 BKN050 27/18 A3002 RMK AO2
KOWA 182150Z AUTO 09005KT 10SM CLR 27/18 A3002 RMK AO2
KOWA 182135Z AUTO 11003KT 10SM SCT047 27/18 A3003 RMK AO2
KOWA 182115Z AUTO 11005KT 10SM BKN045 26/18 A3003 RMK AO2
KOWA 182058Z AUTO 10005KT 10SM BKN043 BKN060 26/18 A3004 RMK AO2
KOWA 182038Z AUTO 10004KT 10SM SCT043 SCT050 26/18 A3005 RMK AO2
KOWA 181939Z AUTO 12003KT 10SM SCT043 26/18 A3006 RMK AO2
KOWA 181913Z AUTO 11003KT 10SM SCT043 26/17 A3007 RMK AO2
KOWA 181851Z AUTO 11004KT 10SM CLR 26/17 A3007 RMK AO2
KOWA 181831Z AUTO 08003KT 10SM CLR 26/17 A3008 RMK AO2
KOWA 181810Z AUTO 07003KT 10SM CLR 26/17 A3008 RMK AO2
KOWA 181759Z AUTO 08005KT 10SM CLR 27/17 A3008 RMK AO2
KOWA 181733Z AUTO 10005KT 10SM CLR 26/16 A3008 RMK AO2
KOWA 181714Z AUTO 00000KT 10SM CLR 26/17 A3008 RMK AO2
KOWA 181651Z AUTO 09005KT 10SM CLR 26/16 A3009 RMK AO2